Time;durP1;ratioP1;P1;durP2;ratioP2;P2;SDS_P1;SDS_P2;PMS_P1;PMS_P2;Temp;Humidity;BMP_temperature;BMP_pressure;BME280_temperature;BME280_humidity;BME280_pressure;Samples;Min_cycle;Max_cycle;Signal;HPM_P1;HPM_P2
2022/09/05 00:01:37;;;;;;;5.97;3.92;;;;;;;17.42;66.03;101791.56;4900397;29;20037;-76
2022/09/05 00:04:20;;;;;;;10.93;3.85;;;;;;;17.37;65.28;101794.41;4876458;29;20048;-75
2022/09/05 00:06:58;;;;;;;5.10;3.90;;;;;;;17.32;67.39;101792.81;4914988;29;20039;-75
2022/09/05 00:10:03;;;;;;;8.20;3.78;;;;;;;17.32;65.49;101792.81;4904042;29;20079;-75
2022/09/05 00:12:31;;;;;;;10.55;3.78;;;;;;;17.24;67.62;101781.53;4898116;29;20067;-75
2022/09/05 00:15:14;;;;;;;8.70;3.90;;;;;;;17.22;65.77;101789.59;4915166;29;20056;-75
2022/09/05 00:18:27;;;;;;;7.60;4.25;;;;;;;17.22;65.18;101786.91;4906122;29;20218;-75
2022/09/05 00:21:28;;;;;;;9.88;3.72;;;;;;;17.16;66.68;101782.66;4884921;29;20040;-75
2022/09/05 00:24:18;;;;;;;7.57;4.33;;;;;;;17.18;65.64;101785.25;4910752;29;20456;-75
2022/09/05 00:27:04;;;;;;;10.18;4.40;;;;;;;17.14;66.16;101776.47;4897969;29;20403;-75
2022/09/05 00:29:47;;;;;;;10.55;4.20;;;;;;;17.12;66.63;101778.31;4897530;29;20584;-75
2022/09/05 00:32:24;;;;;;;8.40;4.60;;;;;;;17.12;66.73;101780.13;4914707;29;20052;-75
2022/09/05 00:35:11;;;;;;;9.88;4.50;;;;;;;17.10;66.66;101781.97;4915102;29;20068;-76
2022/09/05 00:37:44;;;;;;;8.88;4.80;;;;;;;17.11;67.22;101778.38;4914741;29;20028;-75
2022/09/05 00:40:12;;;;;;;10.23;5.05;;;;;;;17.09;67.64;101777.56;4915125;29;20040;-75
2022/09/05 00:42:38;;;;;;;9.68;5.43;;;;;;;17.05;67.46;101782.13;4916765;29;20044;-75
2022/09/05 00:45:06;;;;;;;9.20;5.15;;;;;;;17.03;66.68;101777.75;4904809;29;20042;-75
2022/09/05 00:47:44;;;;;;;8.98;4.93;;;;;;;16.98;67.07;101788.63;4918195;29;20586;-75
2022/09/05 00:50:21;;;;;;;10.43;5.43;;;;;;;16.93;66.98;101783.41;4917846;29;20043;-76
2022/09/05 00:53:21;;;;;;;11.95;5.32;;;;;;;16.93;66.54;101777.19;4918146;29;20047;-76
2022/09/05 00:56:20;;;;;;;13.70;5.60;;;;;;;16.93;66.44;101766.50;4877858;29;20059;-75
2022/09/05 00:59:22;;;;;;;10.00;5.35;;;;;;;16.86;66.97;101768.47;4904950;29;20397;-75
2022/09/05 01:02:05;;;;;;;7.38;4.90;;;;;;;16.83;67.05;101775.75;4897830;29;20032;-75
2022/09/05 01:04:41;;;;;;;10.70;5.10;;;;;;;16.76;66.76;101764.34;4900793;29;20029;-75
2022/09/05 01:07:23;;;;;;;14.52;5.97;;;;;;;16.72;68.31;101770.72;4917858;29;20032;-75
2022/09/05 01:10:11;;;;;;;11.13;6.10;;;;;;;16.76;66.94;101775.03;4917826;29;20165;-75
2022/09/05 01:12:48;;;;;;;10.20;5.57;;;;;;;16.72;66.26;101770.72;4906577;29;20024;-75
2022/09/05 01:15:23;;;;;;;11.00;6.28;;;;;;;16.69;68.36;101771.72;4885222;29;20043;-75
2022/09/05 01:18:18;;;;;;;13.02;5.55;;;;;;;16.65;67.16;101779.88;4917619;29;20388;-75
2022/09/05 01:21:20;;;;;;;10.55;6.68;;;;;;;16.65;67.90;101769.19;4913640;29;20040;-75
2022/09/05 01:23:54;;;;;;;12.38;7.20;;;;;;;16.61;67.41;101770.19;4875238;29;20057;-75
2022/09/05 01:26:41;;;;;;;13.88;7.03;;;;;;;16.63;66.77;101766.53;4905815;29;20036;-75
2022/09/05 01:29:25;;;;;;;16.40;7.50;;;;;;;16.62;67.09;101763.94;4913394;29;20064;-75
2022/09/05 01:31:50;;;;;;;17.05;7.80;;;;;;;16.61;68.22;101764.84;4910281;29;20096;-75
2022/09/05 01:34:36;;;;;;;12.43;7.70;;;;;;;16.60;67.82;101774.66;4917223;29;20396;-75
2022/09/05 01:37:25;;;;;;;11.32;7.50;;;;;;;16.64;66.66;101768.31;4909442;29;20068;-75
2022/09/05 01:40:24;;;;;;;11.93;8.30;;;;;;;16.61;66.60;101770.19;4915402;29;20076;-75
2022/09/05 01:43:04;;;;;;;16.23;9.00;;;;;;;16.62;66.99;101771.97;4904083;29;20393;-75
2022/09/05 01:45:53;;;;;;;11.13;7.85;;;;;;;16.57;67.19;101769.44;4900118;29;20122;-75
2022/09/05 01:48:36;;;;;;;10.52;8.20;;;;;;;16.54;66.76;101766.84;4881698;29;20127;-76
2022/09/05 01:51:16;;;;;;;13.90;9.05;;;;;;;16.51;66.86;101778.50;4908457;29;20040;-75
2022/09/05 01:53:57;;;;;;;15.02;8.52;;;;;;;16.48;66.57;101773.25;4901995;29;20040;-75
2022/09/05 01:56:33;;;;;;;14.55;8.93;;;;;;;16.47;67.34;101776.88;4916660;29;20044;-75
2022/09/05 01:59:42;;;;;;;12.70;8.50;;;;;;;16.46;67.26;101766.22;4911301;29;20040;-75
2022/09/05 02:02:17;;;;;;;12.85;8.95;;;;;;;16.38;67.86;101768.25;4898989;29;20075;-76
2022/09/05 02:05:01;;;;;;;16.25;8.75;;;;;;;16.42;67.59;101767.22;4916826;29;20035;-75
2022/09/05 02:07:32;;;;;;;12.27;8.57;;;;;;;16.36;68.67;101770.97;4887954;29;20476;-75
2022/09/05 02:10:20;;;;;;;15.18;9.43;;;;;;;16.34;67.78;101770.13;4899419;29;20079;-75
2022/09/05 02:13:10;;;;;;;12.75;9.27;;;;;;;16.32;68.25;101772.00;4916800;29;20424;-76
2022/09/05 02:15:42;;;;;;;16.80;9.97;;;;;;;16.28;68.02;101770.34;4913541;29;20481;-75
2022/09/05 02:18:17;;;;;;;13.27;9.07;;;;;;;16.26;68.39;101769.50;4916527;29;20500;-76
2022/09/05 02:20:55;;;;;;;15.75;9.93;;;;;;;16.25;68.37;101767.78;4916282;29;20374;-76
2022/09/05 02:23:31;;;;;;;14.60;10.45;;;;;;;16.24;68.77;101771.34;4897552;29;20060;-76
2022/09/05 02:26:04;;;;;;;15.63;9.98;;;;;;;16.21;68.56;101774.13;4916087;29;20051;-75
2022/09/05 02:28:50;;;;;;;13.55;9.13;;;;;;;16.22;67.84;101773.19;4914688;29;20072;-75
2022/09/05 02:31:38;;;;;;;15.55;11.10;;;;;;;16.22;68.01;101775.84;4904155;29;20119;-75
2022/09/05 02:34:24;;;;;;;17.60;10.82;;;;;;;16.19;68.75;101778.63;4880227;29;20409;-76
2022/09/05 02:37:07;;;;;;;18.48;10.88;;;;;;;16.17;68.73;101784.03;4895948;29;20065;-75
2022/09/05 02:39:47;;;;;;;15.38;11.15;;;;;;;16.12;69.49;101780.59;4902651;29;20469;-76
2022/09/05 02:42:31;;;;;;;15.70;10.35;;;;;;;16.09;69.00;101781.56;4899029;29;20128;-76
2022/09/05 02:45:06;;;;;;;17.60;11.43;;;;;;;16.06;69.54;101781.66;4902338;29;20040;-75
2022/09/05 02:47:53;;;;;;;17.80;11.02;;;;;;;16.08;68.53;101786.97;4913552;29;20358;-75
2022/09/05 02:50:41;;;;;;;17.75;11.52;;;;;;;16.07;68.83;101783.44;4910316;29;20037;-75
2022/09/05 02:53:11;;;;;;;17.50;11.98;;;;;;;16.02;69.93;101772.00;4904139;29;20087;-75
2022/09/05 02:55:37;;;;;;;18.80;12.23;;;;;;;16.00;70.31;101775.63;4898901;29;20099;-75
2022/09/05 02:58:40;;;;;;;16.27;11.95;;;;;;;16.01;69.34;101778.25;4901105;29;20751;-75
2022/09/05 03:01:13;;;;;;;21.33;12.68;;;;;;;15.92;70.91;101781.19;4912970;29;20035;-75
2022/09/05 03:03:51;;;;;;;20.25;11.93;;;;;;;15.92;69.52;101786.53;4906275;29;20043;-75
2022/09/05 03:06:55;;;;;;;17.95;11.60;;;;;;;15.92;67.53;101783.88;4901496;29;20124;-75
2022/09/05 03:09:43;;;;;;;20.77;12.93;;;;;;;15.90;68.80;101783.94;4915776;29;20044;-76
2022/09/05 03:12:43;;;;;;;17.27;11.45;;;;;;;15.90;68.87;101785.72;4898852;29;20036;-76
2022/09/05 03:15:43;;;;;;;25.65;11.73;;;;;;;15.89;68.77;101776.81;4902767;29;20063;-76
2022/09/05 03:18:42;;;;;;;22.17;12.10;;;;;;;15.85;69.87;101782.28;4895946;29;20070;-75
2022/09/05 03:21:13;;;;;;;21.15;12.20;;;;;;;15.81;70.75;101781.50;4915380;29;20067;-76
2022/09/05 03:24:06;;;;;;;22.95;12.13;;;;;;;15.80;69.89;101779.78;4898401;29;20123;-76
2022/09/05 03:26:50;;;;;;;18.23;11.73;;;;;;;15.79;69.99;101786.00;4898640;29;20067;-75
2022/09/05 03:29:27;;;;;;;21.50;12.70;;;;;;;15.76;69.97;101775.44;4915153;29;20051;-76
2022/09/05 03:32:01;;;;;;;25.15;13.15;;;;;;;15.74;70.48;101790.63;4915369;29;20028;-75
2022/09/05 03:35:04;;;;;;;18.80;12.45;;;;;;;15.71;70.46;101785.38;4905499;29;20422;-75
2022/09/05 03:37:53;;;;;;;19.20;12.90;;;;;;;15.70;70.19;101783.59;4896676;29;20417;-76
2022/09/05 03:40:18;;;;;;;21.70;12.57;;;;;;;15.65;71.00;101789.06;4880029;29;20043;-76
2022/09/05 03:43:08;;;;;;;20.73;11.65;;;;;;;15.65;69.48;101782.81;4914323;29;20094;-75
2022/09/05 03:45:52;;;;;;;20.90;12.63;;;;;;;15.63;71.30;101777.53;4898397;29;20040;-75
2022/09/05 03:48:42;;;;;;;17.25;12.35;;;;;;;15.58;70.80;101775.91;4915289;29;20190;-75
2022/09/05 03:51:25;;;;;;;20.63;12.43;;;;;;;15.55;71.14;101776.88;4903979;29;20043;-75
2022/09/05 03:53:51;;;;;;;24.75;12.57;;;;;;;15.52;71.39;101782.28;4915018;29;20400;-75
2022/09/05 03:56:46;;;;;;;20.30;12.95;;;;;;;15.55;71.41;101774.19;4906766;29;20039;-75
2022/09/05 03:59:24;;;;;;;21.05;13.10;;;;;;;15.51;73.09;101783.22;4911830;29;20103;-76
2022/09/05 04:02:03;;;;;;;17.85;12.43;;;;;;;15.49;72.02;101783.25;4904656;29;20063;-76
2022/09/05 04:04:50;;;;;;;20.95;12.88;;;;;;;15.51;72.84;101780.56;4902506;29;20477;-76
2022/09/05 04:07:25;;;;;;;16.02;11.63;;;;;;;15.46;72.65;101779.81;4915504;29;20075;-76
2022/09/05 04:09:50;;;;;;;23.27;12.18;;;;;;;15.43;72.97;101782.53;4902895;29;20041;-76
2022/09/05 04:12:25;;;;;;;19.65;12.52;;;;;;;15.46;72.02;101783.34;4882372;29;20040;-76
2022/09/05 04:14:53;;;;;;;22.15;12.38;;;;;;;15.47;73.09;101786.88;4898237;29;20103;-76
2022/09/05 04:17:22;;;;;;;15.75;11.57;;;;;;;15.45;71.56;101781.59;4904846;29;20033;-76
2022/09/05 04:20:02;;;;;;;24.73;12.50;;;;;;;15.47;71.33;101790.41;4917799;29;20106;-76
2022/09/05 04:23:00;;;;;;;23.80;12.97;;;;;;;15.46;71.30;101794.03;4898603;29;20128;-76
2022/09/05 04:25:25;;;;;;;20.80;12.93;;;;;;;15.43;73.49;101796.78;4907425;29;20063;-77
2022/09/05 04:28:03;;;;;;;18.60;12.40;;;;;;;15.40;72.19;101788.84;4901538;29;20142;-76
2022/09/05 04:30:51;;;;;;;19.20;12.90;;;;;;;15.38;72.12;101785.34;4918172;29;20072;-76
2022/09/05 04:33:31;;;;;;;16.88;12.07;;;;;;;15.36;72.60;101788.97;4918330;29;20032;-76
2022/09/05 04:36:27;;;;;;;23.48;13.88;;;;;;;15.37;73.09;101785.38;4909984;29;20028;-76
2022/09/05 04:39:24;;;;;;;19.40;12.32;;;;;;;15.36;72.07;101786.31;4910438;29;20429;-76
2022/09/05 04:41:57;;;;;;;22.48;13.48;;;;;;;15.30;74.58;101784.66;4913322;29;20063;-76
2022/09/05 04:44:36;;;;;;;19.50;12.63;;;;;;;15.30;73.56;101786.47;4918843;29;20047;-76
2022/09/05 04:47:09;;;;;;;23.08;13.07;;;;;;;15.25;74.00;101789.25;4918113;29;20039;-76
2022/09/05 04:49:48;;;;;;;16.63;12.02;;;;;;;15.25;73.09;101798.13;4918474;29;20033;-76
2022/09/05 04:52:14;;;;;;;19.55;12.07;;;;;;;15.26;71.92;101796.34;4912237;29;20041;-76
2022/09/05 04:54:39;;;;;;;14.77;12.00;;;;;;;15.24;73.29;101799.06;4910660;29;20024;-76
2022/09/05 04:57:26;;;;;;;16.75;12.05;;;;;;;15.19;73.14;101795.63;4902500;29;20036;-76
2022/09/05 05:00:11;;;;;;;17.60;11.80;;;;;;;15.15;72.72;101796.59;4914532;29;20036;-76
2022/09/05 05:02:51;;;;;;;18.05;11.68;;;;;;;15.11;72.64;101802.97;4917371;29;20060;-76
2022/09/05 05:05:17;;;;;;;17.80;12.75;;;;;;;15.08;73.74;101794.13;4900968;29;20037;-76
2022/09/05 05:07:42;;;;;;;22.60;12.32;;;;;;;15.07;74.64;101803.94;4902448;29;20543;-76
2022/09/05 05:10:15;;;;;;;19.60;12.68;;;;;;;15.03;74.40;101800.50;4917816;29;20088;-76
2022/09/05 05:12:57;;;;;;;23.05;12.13;;;;;;;15.04;74.49;101804.91;4917828;29;20040;-76
2022/09/05 05:15:25;;;;;;;19.17;12.98;;;;;;;15.02;75.31;101801.38;4908009;29;20051;-76
2022/09/05 05:18:04;;;;;;;17.35;13.00;;;;;;;15.05;75.01;101808.44;4913464;29;20393;-76
2022/09/05 05:21:07;;;;;;;20.25;12.77;;;;;;;15.10;74.42;101808.31;4909064;29;20126;-76
2022/09/05 05:23:37;;;;;;;24.40;12.90;;;;;;;15.14;76.06;101826.88;4873635;29;20046;-76
2022/09/05 05:26:10;;;;;;;20.95;12.98;;;;;;;15.21;75.18;101824.94;4915579;29;20042;-76
2022/09/05 05:28:45;;;;;;;20.33;12.68;;;;;;;15.24;75.21;101816.84;4891621;29;20079;-77
2022/09/05 05:31:32;;;;;;;19.73;12.27;;;;;;;15.29;74.40;101814.06;4903985;29;20033;-76
2022/09/05 05:34:01;;;;;;;22.10;12.25;;;;;;;15.29;74.81;101814.94;4900380;29;20100;-76
2022/09/05 05:36:40;;;;;;;22.92;12.63;;;;;;;15.35;74.57;101811.22;4917371;29;20119;-76
2022/09/05 05:39:13;;;;;;;24.20;11.85;;;;;;;15.39;73.96;101813.78;4900368;29;20052;-76
2022/09/05 05:41:45;;;;;;;23.17;12.50;;;;;;;15.41;74.93;101814.63;4884681;29;20139;-77
2022/09/05 05:44:13;;;;;;;32.47;14.00;;;;;;;15.42;75.27;101810.16;4917327;29;20091;-76
2022/09/05 05:46:43;;;;;;;24.48;13.18;;;;;;;15.46;75.06;101812.72;4915704;29;20362;-76
2022/09/05 05:49:35;;;;;;;19.00;11.88;;;;;;;15.54;74.30;101809.81;4898242;29;20067;-76
2022/09/05 05:52:31;;;;;;;26.15;12.68;;;;;;;15.59;74.95;101812.38;4915435;29;20043;-76
2022/09/05 05:55:35;;;;;;;26.92;13.07;;;;;;;15.66;74.37;101820.19;4906576;29;20559;-77
2022/09/05 05:58:10;;;;;;;21.30;11.98;;;;;;;15.72;74.74;101819.16;4915917;29;20036;-77
2022/09/05 06:00:54;;;;;;;21.73;12.77;;;;;;;15.81;74.41;101829.59;4916866;29;20036;-76
2022/09/05 06:03:38;;;;;;;22.15;11.60;;;;;;;15.89;74.39;101824.03;4899778;29;20039;-76
2022/09/05 06:06:13;;;;;;;20.50;12.55;;;;;;;15.98;74.27;101829.13;4899747;29;20040;-76
2022/09/05 06:09:10;;;;;;;18.05;11.55;;;;;;;16.07;73.29;101828.88;4916927;29;20568;-76
2022/09/05 06:11:54;;;;;;;27.15;12.82;;;;;;;16.17;73.93;101831.25;4900629;29;20033;-77
2022/09/05 06:14:38;;;;;;;26.08;12.38;;;;;;;16.27;72.77;101836.28;4913003;29;20112;-76
2022/09/05 06:17:15;;;;;;;21.30;12.90;;;;;;;16.37;73.30;101836.91;4916789;29;20040;-76
2022/09/05 06:20:05;;;;;;;21.80;12.63;;;;;;;16.46;73.03;101835.72;4916229;29;20032;-77
2022/09/05 06:22:37;;;;;;;19.40;11.85;;;;;;;16.58;72.39;101839.81;4896421;29;20036;-76
2022/09/05 06:25:41;;;;;;;20.67;11.68;;;;;;;16.71;71.96;101846.53;4903666;29;20035;-77
2022/09/05 06:28:21;;;;;;;16.00;11.40;;;;;;;16.85;71.17;101838.97;4912582;29;20056;-76
2022/09/05 06:31:10;;;;;;;25.08;11.68;;;;;;;16.97;71.09;101843.06;4907013;29;20055;-76
2022/09/05 06:33:53;;;;;;;17.60;10.85;;;;;;;17.09;70.19;101842.66;4916170;29;20038;-77
2022/09/05 06:36:38;;;;;;;17.13;10.43;;;;;;;17.22;69.07;101837.78;4895871;29;20213;-77
2022/09/05 06:39:10;;;;;;;15.20;10.23;;;;;;;17.37;68.44;101839.06;4905182;29;20036;-77
2022/09/05 06:41:52;;;;;;;16.67;10.57;;;;;;;17.50;68.20;101840.38;4903030;29;20095;-77
2022/09/05 06:44:31;;;;;;;14.45;9.85;;;;;;;17.64;67.09;101847.94;4899077;29;20443;-77
2022/09/05 06:47:05;;;;;;;16.42;10.13;;;;;;;17.77;66.69;101843.88;4915923;29;20039;-77
2022/09/05 06:49:42;;;;;;;19.55;10.50;;;;;;;17.92;66.44;101847.84;4915916;29;20067;-77
2022/09/05 06:52:37;;;;;;;18.25;10.48;;;;;;;18.08;65.81;101842.78;4902575;29;20047;-77
2022/09/05 06:55:12;;;;;;;18.45;10.25;;;;;;;18.25;65.14;101840.34;4915811;29;20036;-77
2022/09/05 06:58:12;;;;;;;18.88;9.90;;;;;;;18.40;65.20;101840.72;4902106;29;20159;-77
2022/09/05 07:00:47;;;;;;;16.40;10.68;;;;;;;18.56;65.01;101836.47;4910289;29;20379;-78
2022/09/05 07:03:24;;;;;;;17.77;9.55;;;;;;;18.69;64.98;101834.16;4898553;29;20047;-78
2022/09/05 07:06:17;;;;;;;18.05;9.32;;;;;;;18.85;64.39;101831.78;4898758;29;20031;-78
2022/09/05 07:08:54;;;;;;;16.05;8.50;;;;;;;19.00;63.05;101835.66;4904292;29;20029;-78
2022/09/05 07:11:27;;;;;;;15.85;10.27;;;;;;;19.15;62.77;101844.88;4898141;29;20044;-78
2022/09/05 07:14:14;;;;;;;27.33;10.15;;;;;;;19.30;62.84;101844.22;4902848;29;20739;-78
2022/09/05 07:16:56;;;;;;;17.48;10.02;;;;;;;19.48;62.03;101834.50;4890702;29;20557;-78
2022/09/05 07:19:48;;;;;;;14.65;8.48;;;;;;;19.61;61.52;101840.22;4915667;29;20039;-78
2022/09/05 07:23:00;;;;;;;16.88;9.75;;;;;;;19.79;60.95;101843.97;4898682;29;20059;-78
2022/09/05 07:25:29;;;;;;;19.65;9.65;;;;;;;19.92;59.93;101847.81;4902132;29;20575;-78
2022/09/05 07:27:59;;;;;;;17.85;10.65;;;;;;;20.01;58.87;101839.34;4915605;29;20067;-79
2022/09/05 07:30:25;;;;;;;14.50;10.57;;;;;;;20.16;59.28;101844.03;4898019;29;20051;-78
2022/09/05 07:32:54;;;;;;;16.33;9.77;;;;;;;20.28;58.59;101836.34;4898880;29;20043;-78
2022/09/05 07:35:37;;;;;;;16.42;10.25;;;;;;;20.43;59.31;101842.81;4915373;29;20440;-78
2022/09/05 07:38:26;;;;;;;15.48;10.10;;;;;;;20.54;58.28;101851.25;4881461;29;20044;-78
2022/09/05 07:41:14;;;;;;;17.38;10.10;;;;;;;20.63;56.46;101853.53;4864283;29;20052;-78
2022/09/05 07:43:45;;;;;;;19.30;9.38;;;;;;;20.74;56.81;101859.25;4909703;29;20041;-78
2022/09/05 07:46:22;;;;;;;18.98;9.27;;;;;;;20.86;56.93;101859.63;4896711;29;20044;-78
2022/09/05 07:48:57;;;;;;;20.95;11.02;;;;;;;20.98;57.09;101862.56;4898229;29;20628;-78
2022/09/05 07:51:25;;;;;;;18.00;10.10;;;;;;;21.13;56.31;101860.06;4915492;29;20036;-78
2022/09/05 07:54:00;;;;;;;27.38;9.80;;;;;;;21.24;56.63;101868.47;4902118;29;20028;-78
2022/09/05 07:56:44;;;;;;;22.17;10.27;;;;;;;21.31;56.46;101860.97;4886478;29;20071;-78
2022/09/05 07:59:12;;;;;;;17.92;9.65;;;;;;;21.46;55.52;101861.09;4905259;29;20036;-77
2022/09/05 08:01:43;;;;;;;29.05;10.50;;;;;;;21.63;55.96;101868.28;4909945;29;20104;-78
2022/09/05 08:04:22;;;;;;;21.25;10.40;;;;;;;21.79;55.50;101873.75;4915311;29;20489;-78
2022/09/05 08:06:51;;;;;;;15.82;9.55;;;;;;;21.95;54.90;101868.41;4918976;29;20498;-78
2022/09/05 08:09:23;;;;;;;21.88;8.82;;;;;;;22.14;54.38;101878.25;4918458;29;20412;-78
2022/09/05 08:11:51;;;;;;;15.27;7.50;;;;;;;22.29;53.29;101867.50;4918860;29;20040;-77
2022/09/05 08:14:38;;;;;;;18.20;7.20;;;;;;;22.52;53.51;101857.25;4901771;29;20044;-78
2022/09/05 08:17:07;;;;;;;19.00;7.10;;;;;;;22.76;52.26;101860.41;4901620;29;20040;-77
2022/09/05 08:19:54;;;;;;;15.63;6.80;;;;;;;22.98;51.42;101853.81;4915875;29;20032;-77
2022/09/05 08:22:24;;;;;;;11.82;5.90;;;;;;;23.15;49.14;101856.41;4909834;29;20039;-77
2022/09/05 08:25:05;;;;;;;13.32;5.65;;;;;;;23.26;49.39;101855.75;4918703;29;20032;-77
2022/09/05 08:28:05;;;;;;;14.40;4.90;;;;;;;23.37;49.84;101850.59;4901552;29;20044;-77
2022/09/05 08:30:52;;;;;;;15.32;5.00;;;;;;;23.57;48.03;101849.38;4917472;29;20123;-77
2022/09/05 08:33:31;;;;;;;25.38;5.20;;;;;;;23.80;47.80;101857.00;4905213;29;20032;-77
2022/09/05 08:36:02;;;;;;;13.77;4.47;;;;;;;23.97;47.18;101863.19;4918301;29;20543;-77
2022/09/05 08:38:33;;;;;;;12.32;4.20;;;;;;;24.04;47.02;101865.44;4918313;29;20063;-77
2022/09/05 08:41:16;;;;;;;8.88;4.47;;;;;;;24.18;47.28;101867.28;4918357;29;20111;-77
2022/09/05 08:44:06;;;;;;;13.13;4.20;;;;;;;24.41;47.85;101862.25;4903607;29;20036;-77
2022/09/05 08:46:54;;;;;;;20.60;4.07;;;;;;;24.52;44.83;101856.16;4904961;29;20480;-77
2022/09/05 08:49:41;;;;;;;8.90;3.97;;;;;;;24.63;43.61;101856.34;4917934;29;20464;-77
2022/09/05 08:52:15;;;;;;;7.15;3.58;;;;;;;24.78;44.34;101857.19;4901004;29;20040;-77
2022/09/05 08:54:53;;;;;;;8.02;3.65;;;;;;;24.88;45.07;101853.75;4901066;29;20123;-77
2022/09/05 08:57:40;;;;;;;8.27;3.30;;;;;;;25.03;44.03;101849.16;4884412;29;20050;-77
2022/09/05 09:00:08;;;;;;;11.15;3.80;;;;;;;25.20;43.15;101848.06;4892483;29;20040;-77
2022/09/05 09:02:58;;;;;;;7.43;3.60;;;;;;;25.31;44.09;101839.16;4904298;29;20476;-77
2022/09/05 09:05:32;;;;;;;17.52;3.20;;;;;;;25.51;42.48;101835.09;4905476;29;20041;-77
2022/09/05 09:08:24;;;;;;;8.68;3.50;;;;;;;25.64;43.13;101843.22;4916377;29;20098;-77
2022/09/05 09:11:10;;;;;;;8.43;3.22;;;;;;;25.79;42.05;101841.28;4911729;29;20507;-77
2022/09/05 09:13:52;;;;;;;10.10;2.75;;;;;;;25.89;41.71;101843.31;4900893;29;20497;-77
2022/09/05 09:16:45;;;;;;;10.73;2.95;;;;;;;26.03;41.68;101838.72;4917452;29;20047;-77
2022/09/05 09:19:53;;;;;;;12.85;3.05;;;;;;;26.14;41.05;101826.13;4917698;29;20039;-77
2022/09/05 09:22:19;;;;;;;7.00;2.88;;;;;;;26.24;38.25;101833.63;4909795;29;20060;-77
2022/09/05 09:25:19;;;;;;;6.70;2.90;;;;;;;26.36;40.15;101836.31;4900359;29;20045;-77
2022/09/05 09:28:21;;;;;;;7.05;2.60;;;;;;;26.47;39.47;101831.94;4890491;29;20052;-77
2022/09/05 09:30:55;;;;;;;9.25;2.25;;;;;;;26.65;38.68;101827.88;4862908;29;20079;-77
2022/09/05 09:33:34;;;;;;;5.13;2.10;;;;;;;26.78;37.21;101826.00;4894133;29;20108;-76
2022/09/05 09:36:21;;;;;;;8.02;2.72;;;;;;;26.86;37.60;101819.13;4879894;29;20427;-77
2022/09/05 09:39:12;;;;;;;4.93;1.90;;;;;;;26.99;36.98;101820.78;4851463;29;20045;-77
2022/09/05 09:41:47;;;;;;;5.57;2.20;;;;;;;27.08;37.90;101823.75;4866686;29;20067;-77
2022/09/05 09:44:47;;;;;;;7.95;1.80;;;;;;;27.23;37.44;101815.34;4870940;29;20052;-77
2022/09/05 09:47:17;;;;;;;4.75;2.05;;;;;;;27.36;35.72;101806.25;4866112;29;20040;-77
2022/09/05 09:50:11;;;;;;;4.68;1.95;;;;;;;27.53;37.42;101804.94;4878237;29;20080;-77
2022/09/05 09:52:42;;;;;;;6.20;2.10;;;;;;;27.82;35.60;101813.53;4868489;29;20398;-77
2022/09/05 09:55:31;;;;;;;6.45;2.08;;;;;;;28.00;36.92;101805.75;4893534;29;20048;-75
2022/09/05 09:57:59;;;;;;;7.57;2.08;;;;;;;28.07;34.52;101813.28;4867994;29;20477;-75
2022/09/05 10:00:41;;;;;;;5.90;2.13;;;;;;;28.26;35.03;101804.50;4879636;29;20033;-75
2022/09/05 10:03:28;;;;;;;5.22;2.00;;;;;;;28.50;34.72;101809.81;4868058;29;20192;-75
2022/09/05 10:05:57;;;;;;;4.53;1.98;;;;;;;28.60;33.05;101806.31;4878290;29;20071;-75
2022/09/05 10:08:44;;;;;;;6.32;2.10;;;;;;;28.77;32.51;101807.66;4879442;29;20431;-75
2022/09/05 10:11:25;;;;;;;4.57;1.55;;;;;;;28.94;32.99;101801.63;4879222;29;20037;-75
2022/09/05 10:14:11;;;;;;;4.60;1.70;;;;;;;29.06;30.96;101788.88;4886484;29;20051;-75
2022/09/05 10:16:55;;;;;;;6.40;1.70;;;;;;;29.15;31.44;101790.78;4871744;29;20037;-75
2022/09/05 10:19:24;;;;;;;2.47;1.58;;;;;;;29.30;30.98;101789.47;4878094;29;20417;-75
2022/09/05 10:22:22;;;;;;;7.55;1.70;;;;;;;29.45;31.92;101789.13;4867625;29;20041;-75
2022/09/05 10:25:06;;;;;;;5.82;1.63;;;;;;;29.55;30.11;101790.94;4878996;29;20037;-75
2022/09/05 10:27:58;;;;;;;3.38;1.58;;;;;;;29.70;31.69;101787.88;4879300;29;20390;-75
2022/09/05 10:30:27;;;;;;;5.75;1.42;;;;;;;29.67;28.91;101782.69;4898289;29;20048;-75
2022/09/05 10:33:29;;;;;;;4.85;1.67;;;;;;;29.74;29.84;101778.41;4912233;29;20370;-75
2022/09/05 10:36:21;;;;;;;6.82;1.33;;;;;;;29.75;30.41;101780.16;4876668;29;20056;-75
2022/09/05 10:39:11;;;;;;;7.18;1.67;;;;;;;29.79;28.77;101782.44;4885505;29;20033;-75
2022/09/05 10:41:48;;;;;;;4.22;1.40;;;;;;;29.96;29.14;101777.38;4895135;29;20077;-75
2022/09/05 10:44:17;;;;;;;4.13;1.75;;;;;;;30.09;29.01;101766.19;4888562;29;20044;-75
2022/09/05 10:47:10;;;;;;;7.25;1.60;;;;;;;30.26;29.64;101768.28;4897250;29;20080;-75
2022/09/05 10:49:43;;;;;;;4.85;1.75;;;;;;;30.38;28.28;101771.78;4900128;29;20045;-75
2022/09/05 10:52:20;;;;;;;4.70;1.55;;;;;;;30.49;27.78;101768.94;4892164;29;20405;-75
2022/09/05 10:55:04;;;;;;;3.78;1.65;;;;;;;30.71;29.37;101761.47;4886119;29;20045;-75
2022/09/05 10:57:36;;;;;;;7.05;1.48;;;;;;;30.87;28.18;101767.28;4889862;29;20029;-75
2022/09/05 11:00:39;;;;;;;7.05;1.80;;;;;;;30.99;29.29;101766.13;4887974;29;20100;-75
2022/09/05 11:03:11;;;;;;;5.85;1.70;;;;;;;31.22;28.59;101760.34;4899715;29;20044;-75
2022/09/05 11:05:37;;;;;;;8.13;1.60;;;;;;;31.41;26.39;101762.22;4896907;29;20511;-75
2022/09/05 11:08:35;;;;;;;3.28;1.52;;;;;;;31.24;26.64;101753.69;4895756;29;20405;-75
2022/09/05 11:11:17;;;;;;;6.47;1.58;;;;;;;31.41;27.99;101752.13;4893059;29;20053;-75
2022/09/05 11:13:49;;;;;;;5.97;1.65;;;;;;;31.77;28.13;101744.06;4888522;29;20040;-75
2022/09/05 11:16:30;;;;;;;3.97;1.55;;;;;;;31.78;26.78;101742.22;4896615;29;20047;-75
2022/09/05 11:19:07;;;;;;;3.25;1.48;;;;;;;31.81;26.69;101739.16;4895657;29;20069;-74
2022/09/05 11:21:39;;;;;;;3.88;1.60;;;;;;;31.74;26.43;101743.50;4896665;29;20060;-75
2022/09/05 11:24:24;;;;;;;5.97;1.30;;;;;;;31.74;27.02;101733.41;4911400;29;20630;-75
2022/09/05 11:27:03;;;;;;;5.47;1.40;;;;;;;31.73;26.82;101736.28;4882330;29;20038;-75
2022/09/05 11:29:49;;;;;;;3.20;1.40;;;;;;;31.93;26.70;101738.81;4906264;29;20056;-75
2022/09/05 11:32:49;;;;;;;6.90;1.60;;;;;;;32.04;26.54;101740.50;4895464;29;20489;-75
2022/09/05 11:35:33;;;;;;;6.60;1.70;;;;;;;32.13;25.50;101736.00;4901212;29;20079;-75
2022/09/05 11:38:02;;;;;;;5.18;1.50;;;;;;;32.37;25.76;101740.03;4915446;29;20036;-75
2022/09/05 11:40:30;;;;;;;6.75;2.13;;;;;;;32.53;24.35;101732.00;4915275;29;20112;-75
2022/09/05 11:43:31;;;;;;;5.15;1.27;;;;;;;32.63;25.61;101729.19;4914143;29;20055;-75
2022/09/05 11:45:57;;;;;;;1.80;1.15;;;;;;;32.97;25.06;101729.34;4832985;29;20150;-75
2022/09/05 11:48:45;;;;;;;4.78;1.75;;;;;;;33.05;25.15;101731.31;4884115;29;20756;-76
2022/09/05 11:51:20;;;;;;;4.70;1.40;;;;;;;33.06;25.67;101728.41;4896527;29;20040;-75
2022/09/05 11:54:15;;;;;;;2.95;1.60;;;;;;;33.07;25.83;101726.53;4899249;29;20481;-75
2022/09/05 11:57:13;;;;;;;6.55;1.60;;;;;;;33.14;25.39;101731.22;4914918;29;20032;-75
2022/09/05 11:59:57;;;;;;;2.30;1.33;;;;;;;33.07;25.41;101729.28;4907435;29;20056;-75
2022/09/05 12:02:40;;;;;;;6.28;1.60;;;;;;;32.84;24.76;101728.88;4915553;29;20421;-75
2022/09/05 12:05:59;;;;;;;2.65;1.20;;;;;;;33.29;25.03;101727.91;4898061;29;20544;-76
2022/09/05 12:08:38;;;;;;;2.50;1.20;;;;;;;33.54;23.90;101724.28;4828459;29;20069;-75
2022/09/05 12:11:41;;;;;;;2.42;1.60;;;;;;;33.77;25.16;101729.22;4912013;29;20040;-75
2022/09/05 12:14:39;;;;;;;3.72;1.50;;;;;;;34.20;24.71;101722.72;4896389;29;20076;-75
2022/09/05 12:17:52;;;;;;;2.97;1.42;;;;;;;34.78;24.02;101704.44;4915259;29;20040;-75
2022/09/05 12:20:38;;;;;;;7.53;1.60;;;;;;;34.71;23.31;101705.31;4843559;29;20085;-75
2022/09/05 12:23:09;;;;;;;4.78;1.30;;;;;;;35.15;23.12;101699.47;4912956;29;20028;-75
2022/09/05 12:25:47;;;;;;;5.20;1.63;;;;;;;34.88;23.20;101704.28;4915100;29;20384;-75